Time;durP1;ratioP1;P1;durP2;ratioP2;P2;SDS_P1;SDS_P2;PMS_P1;PMS_P2;Temp;Humidity;BMP_temperature;BMP_pressure;BME280_temperature;BME280_humidity;BME280_pressure;Samples;Min_cycle;Max_cycle;Signal;HPM_P1;HPM_P2
2021/12/01 00:03:40;;;;;;;3.35;1.40;;;;;;;3.23;100.00;97388.87;4405820;79;28524;-76
2021/12/01 00:09:42;;;;;;;4.28;2.00;;;;;;;3.09;100.00;97399.66;4382241;79;28465;-78
2021/12/01 00:15:47;;;;;;;5.92;1.82;;;;;;;3.00;100.00;97393.86;4398371;80;28460;-78
2021/12/01 00:21:48;;;;;;;7.35;2.50;;;;;;;2.93;100.00;97417.01;4210741;83;28541;-78
2021/12/01 00:27:51;;;;;;;4.12;1.80;;;;;;;3.01;100.00;97430.50;4377617;80;28502;-78
2021/12/01 00:33:53;;;;;;;4.85;2.02;;;;;;;3.05;100.00;97433.81;4366431;80;28470;-78
2021/12/01 00:39:54;;;;;;;5.60;1.95;;;;;;;3.12;100.00;97456.84;4326660;82;28532;-79
2021/12/01 00:45:58;;;;;;;4.28;1.87;;;;;;;3.05;100.00;97452.41;4265357;82;28461;-76
2021/12/01 00:52:00;;;;;;;5.05;1.77;;;;;;;2.93;100.00;97494.00;4324314;81;28570;-76
2021/12/01 00:58:02;;;;;;;4.55;1.80;;;;;;;2.76;100.00;97487.95;4332358;82;28558;-77
2021/12/01 01:04:04;;;;;;;6.65;2.33;;;;;;;2.83;100.00;97505.64;4373842;80;28634;-76
2021/12/01 01:16:26;;;;;;;4.60;1.72;;;;;;;2.75;100.00;97526.11;4402591;80;28542;-80
2021/12/01 01:22:27;;;;;;;5.05;1.85;;;;;;;2.75;100.00;97547.88;4401148;80;28628;-75
2021/12/01 01:28:29;;;;;;;7.67;2.25;;;;;;;2.62;100.00;97554.92;4391239;80;28559;-75
2021/12/01 01:34:31;;;;;;;4.60;2.00;;;;;;;2.69;100.00;97550.06;4425208;80;28525;-76
2021/12/01 01:40:34;;;;;;;5.92;2.00;;;;;;;2.70;100.00;97581.70;4427076;80;28500;-75
2021/12/01 01:46:39;;;;;;;5.37;1.98;;;;;;;2.68;100.00;97570.99;4413215;80;28481;-76
2021/12/01 01:52:40;;;;;;;5.17;1.67;;;;;;;2.82;100.00;97591.11;4410613;80;28510;-75
2021/12/01 01:58:42;;;;;;;7.65;2.02;;;;;;;2.79;100.00;97595.00;4285120;82;28536;-75
2021/12/01 02:04:44;;;;;;;4.08;1.40;;;;;;;2.85;100.00;97624.35;4398730;80;28468;-75
2021/12/01 02:10:48;;;;;;;4.50;1.72;;;;;;;2.84;100.00;97646.63;4383187;80;28579;-75
2021/12/01 02:16:52;;;;;;;5.25;1.50;;;;;;;2.30;100.00;97660.21;4386872;80;28565;-75
2021/12/01 02:22:53;;;;;;;4.87;1.42;;;;;;;2.05;100.00;97665.71;4415638;80;28517;-75
2021/12/01 02:28:59;;;;;;;6.05;1.90;;;;;;;2.01;100.00;97666.34;4308338;80;28479;-76
2021/12/01 02:35:00;;;;;;;7.75;1.70;;;;;;;2.09;100.00;97677.55;4276644;81;28531;-75
2021/12/01 02:41:03;;;;;;;7.03;1.77;;;;;;;2.08;100.00;97678.57;4277219;81;28476;-75
2021/12/01 02:47:05;;;;;;;5.15;1.50;;;;;;;2.26;100.00;97696.15;4300041;81;28512;-76
2021/12/01 02:53:06;;;;;;;8.00;1.60;;;;;;;2.26;100.00;97718.16;4247491;82;28529;-74
2021/12/01 02:59:08;;;;;;;8.50;1.75;;;;;;;2.24;100.00;97716.23;4254871;82;28471;-73
2021/12/01 03:05:10;;;;;;;4.60;1.20;;;;;;;2.20;100.00;97737.58;4235608;82;28561;-73
2021/12/01 03:11:13;;;;;;;2.52;0.80;;;;;;;2.23;100.00;97747.77;4374394;80;28559;-75
2021/12/01 03:17:14;;;;;;;2.60;1.00;;;;;;;1.75;100.00;97768.77;4396002;80;28540;-75
2021/12/01 03:23:17;;;;;;;4.97;1.70;;;;;;;1.69;100.00;97778.84;4412446;80;28485;-75
2021/12/01 03:29:18;;;;;;;2.37;0.93;;;;;;;1.61;100.00;97788.62;4383566;80;28471;-75
2021/12/01 03:35:20;;;;;;;4.28;1.20;;;;;;;1.85;100.00;97791.69;4412689;79;28471;-76
2021/12/01 03:41:21;;;;;;;1.85;0.80;;;;;;;1.99;100.00;97803.09;4475577;79;28544;-76
2021/12/01 03:47:25;;;;;;;4.60;1.30;;;;;;;2.12;100.00;97810.20;4366606;79;28449;-74
2021/12/01 03:53:27;;;;;;;3.37;1.25;;;;;;;2.16;100.00;97817.23;4419635;80;28466;-76
2021/12/01 03:59:28;;;;;;;2.83;0.95;;;;;;;2.41;100.00;97825.87;4413911;80;28542;-77
2021/12/01 04:05:29;;;;;;;3.08;1.00;;;;;;;2.36;100.00;97835.77;4415183;80;28528;-77
2021/12/01 04:11:31;;;;;;;3.25;0.90;;;;;;;2.35;100.00;97860.67;4409076;79;28488;-76
2021/12/01 04:17:32;;;;;;;2.95;0.82;;;;;;;2.42;100.00;97877.91;4423682;80;28496;-76
2021/12/01 04:23:34;;;;;;;3.52;1.00;;;;;;;2.57;100.00;97860.42;4411849;80;28513;-77
2021/12/01 04:29:36;;;;;;;2.90;1.22;;;;;;;2.40;100.00;97866.16;4429142;80;28506;-77
2021/12/01 04:35:38;;;;;;;4.22;1.40;;;;;;;2.62;100.00;97879.17;4368727;81;28455;-77
2021/12/01 04:42:03;;;;;;;3.20;1.35;;;;;;;2.57;100.00;97884.30;4407649;79;28477;-77
2021/12/01 04:47:56;;;;;;;2.55;1.40;;;;;;;2.33;100.00;97911.27;4316822;82;28485;-76
2021/12/01 04:53:59;;;;;;;2.98;1.27;;;;;;;2.34;100.00;97910.25;4329579;80;28495;-77
2021/12/01 05:00:00;;;;;;;2.27;1.30;;;;;;;2.30;100.00;97907.71;4327844;82;28514;-77
2021/12/01 05:06:02;;;;;;;2.00;1.27;;;;;;;2.36;100.00;97918.02;4314197;82;28516;-76
2021/12/01 05:12:07;;;;;;;3.37;1.12;;;;;;;2.26;100.00;97921.06;4342346;80;28520;-76
2021/12/01 05:18:08;;;;;;;5.15;1.60;;;;;;;2.22;100.00;97923.83;4302158;82;28544;-76
2021/12/01 05:24:10;;;;;;;3.25;1.37;;;;;;;2.28;100.00;97935.45;4282649;82;28510;-76
2021/12/01 05:30:12;;;;;;;3.58;1.20;;;;;;;2.27;100.00;97938.60;4358176;80;28503;-76
2021/12/01 05:36:14;;;;;;;2.00;1.30;;;;;;;2.26;100.00;97944.93;4413633;78;28514;-75
2021/12/01 05:42:16;;;;;;;3.52;1.40;;;;;;;2.41;100.00;97927.48;4440518;78;28513;-76
2021/12/01 05:48:18;;;;;;;2.27;1.60;;;;;;;2.35;100.00;97933.63;4426476;78;28540;-77
2021/12/01 05:54:20;;;;;;;4.53;1.80;;;;;;;2.33;100.00;97931.66;4437587;80;28441;-76
2021/12/01 06:00:22;;;;;;;4.50;1.52;;;;;;;2.28;100.00;97928.30;4432860;79;28545;-77
2021/12/01 06:06:23;;;;;;;2.77;1.30;;;;;;;2.16;100.00;97923.30;4420557;78;28490;-77
2021/12/01 06:12:30;;;;;;;5.28;1.92;;;;;;;2.23;100.00;97926.26;4449578;80;28480;-77
2021/12/01 06:18:32;;;;;;;3.72;1.87;;;;;;;2.25;100.00;97934.02;4433251;80;28480;-79
2021/12/01 06:24:35;;;;;;;4.03;1.70;;;;;;;2.22;100.00;97939.74;4437201;80;28480;-75
2021/12/01 06:30:38;;;;;;;5.03;2.15;;;;;;;2.22;100.00;97951.15;4437577;79;28496;-80
2021/12/01 06:36:40;;;;;;;2.95;1.98;;;;;;;2.19;100.00;97949.44;4442891;78;28475;-78
2021/12/01 06:42:44;;;;;;;4.12;2.42;;;;;;;2.18;100.00;97953.91;4428559;79;28579;-80
2021/12/01 06:48:45;;;;;;;7.15;2.72;;;;;;;2.28;100.00;97951.37;4496094;79;28537;-78
2021/12/01 06:54:47;;;;;;;6.25;2.80;;;;;;;2.30;100.00;97962.09;4430289;80;28504;-76
2021/12/01 07:00:48;;;;;;;6.70;3.30;;;;;;;2.35;100.00;97960.15;4432539;80;28520;-78
2021/12/01 07:06:50;;;;;;;7.70;3.08;;;;;;;2.47;100.00;97956.35;4417819;79;28491;-79
2021/12/01 07:12:51;;;;;;;5.90;2.90;;;;;;;2.52;100.00;97959.22;4413338;79;28461;-76
2021/12/01 07:18:53;;;;;;;7.05;3.27;;;;;;;2.57;100.00;97960.73;4413398;79;28504;-79
2021/12/01 07:24:54;;;;;;;8.38;3.67;;;;;;;2.56;100.00;97962.28;4410494;78;28519;-75
2021/12/01 07:30:56;;;;;;;6.72;3.30;;;;;;;2.58;100.00;97958.37;4416348;78;28542;-76
2021/12/01 07:36:57;;;;;;;7.78;3.30;;;;;;;2.58;100.00;97947.77;4425507;78;28505;-74
2021/12/01 07:42:59;;;;;;;8.05;3.62;;;;;;;2.59;100.00;97936.66;4433283;78;28623;-75
2021/12/01 07:49:00;;;;;;;8.38;4.37;;;;;;;2.67;100.00;97924.50;4430749;78;28474;-74
2021/12/01 07:55:04;;;;;;;8.20;4.12;;;;;;;2.75;100.00;97912.84;4428128;79;28466;-75
2021/12/01 08:01:05;;;;;;;8.85;4.00;;;;;;;2.83;100.00;97899.84;4428807;78;28458;-76
2021/12/01 08:07:07;;;;;;;8.60;3.58;;;;;;;3.01;100.00;97882.73;4416384;78;28530;-77
2021/12/01 08:13:09;;;;;;;8.83;3.70;;;;;;;3.22;100.00;97882.13;4440713;79;28484;-80
2021/12/01 08:19:11;;;;;;;10.60;4.28;;;;;;;3.37;100.00;97880.52;4453714;79;28541;-76
2021/12/01 08:25:15;;;;;;;8.68;3.90;;;;;;;3.34;100.00;97872.45;4468792;79;28569;-75
2021/12/01 08:31:19;;;;;;;6.15;2.70;;;;;;;3.32;100.00;97857.75;4446287;78;28591;-76
2021/12/01 08:37:21;;;;;;;8.03;2.90;;;;;;;3.33;100.00;97861.53;4441592;80;28511;-78
2021/12/01 08:43:23;;;;;;;8.55;3.02;;;;;;;3.33;100.00;97858.05;4312098;78;1731283;-75
2021/12/01 08:49:24;;;;;;;7.17;2.33;;;;;;;3.34;100.00;97865.02;4179071;83;28545;-77
2021/12/01 08:55:27;;;;;;;5.70;2.25;;;;;;;3.40;100.00;97862.81;4215610;83;28490;-78
2021/12/01 09:01:29;;;;;;;13.13;2.67;;;;;;;3.59;100.00;97861.09;4219970;83;28509;-77
2021/12/01 09:07:30;;;;;;;7.95;2.22;;;;;;;3.66;100.00;97868.18;4222063;82;28601;-81
2021/12/01 09:13:35;;;;;;;5.83;2.65;;;;;;;3.68;100.00;97848.84;4219058;82;28520;-78
2021/12/01 09:19:37;;;;;;;5.60;1.90;;;;;;;3.72;100.00;97844.73;4216103;82;28543;-80
2021/12/01 09:25:38;;;;;;;9.63;3.77;;;;;;;3.72;100.00;97831.45;4218910;82;28500;-78
2021/12/01 09:31:40;;;;;;;5.87;2.50;;;;;;;3.61;100.00;97829.78;4191571;83;28490;-78
2021/12/01 09:37:42;;;;;;;6.45;2.60;;;;;;;3.73;100.00;97823.23;4195034;83;28466;-78
2021/12/01 09:43:44;;;;;;;5.12;1.75;;;;;;;3.83;100.00;97822.77;4191026;83;28593;-78
2021/12/01 09:49:47;;;;;;;8.88;2.22;;;;;;;3.90;100.00;97801.43;4187204;83;28600;-77
2021/12/01 09:55:49;;;;;;;7.55;1.92;;;;;;;4.23;100.00;97782.20;4191815;83;28470;-77
2021/12/01 10:01:50;;;;;;;7.37;2.10;;;;;;;4.57;100.00;97775.98;4184904;83;28500;-77
2021/12/01 10:07:52;;;;;;;4.62;1.62;;;;;;;4.70;100.00;97775.81;4179852;83;28461;-76
2021/12/01 10:14:00;;;;;;;17.57;2.92;;;;;;;4.78;100.00;97768.03;4047097;86;28506;-76
2021/12/01 10:20:18;;;;;;;20.30;3.08;;;;;;;4.92;100.00;97766.55;4189428;83;28545;-78
2021/12/01 10:26:30;;;;;;;4.05;1.98;;;;;;;5.11;100.00;97762.80;4182709;83;28456;-79
2021/12/01 10:32:32;;;;;;;5.05;1.77;;;;;;;5.24;100.00;97754.31;4184331;84;28587;-78
2021/12/01 10:38:38;;;;;;;6.00;2.83;;;;;;;5.35;97.07;97734.03;4181234;83;28465;-78
2021/12/01 10:44:58;;;;;;;7.72;2.12;;;;;;;5.45;92.24;97730.28;4182419;83;28582;-71
2021/12/01 10:50:59;;;;;;;25.48;3.10;;;;;;;5.50;92.75;97717.59;4186089;83;28523;-72
2021/12/01 10:57:22;;;;;;;4.53;1.62;;;;;;;5.55;91.58;97712.41;4182968;83;28526;-71
2021/12/01 11:03:27;;;;;;;4.58;1.80;;;;;;;5.95;90.95;97698.36;4180369;83;28531;-71
2021/12/01 11:09:28;;;;;;;6.45;2.15;;;;;;;6.08;86.46;97680.50;4175419;83;28504;-71
2021/12/01 11:15:37;;;;;;;3.20;1.65;;;;;;;6.20;85.68;97667.94;4209508;83;28520;-70
2021/12/01 11:21:41;;;;;;;4.15;1.90;;;;;;;6.48;87.70;97654.84;4206746;83;28547;-71
2021/12/01 11:27:42;;;;;;;5.08;1.15;;;;;;;6.36;94.06;97649.03;4138285;85;28439;-72
2021/12/01 11:33:44;;;;;;;4.62;1.70;;;;;;;6.41;95.71;97644.31;4134468;84;28457;-75
2021/12/01 11:39:47;;;;;;;4.95;1.62;;;;;;;6.16;97.48;97636.63;4154629;84;28504;-77
2021/12/01 11:45:49;;;;;;;4.75;1.80;;;;;;;6.07;100.00;97624.98;4154486;84;28465;-75
2021/12/01 11:51:58;;;;;;;3.87;1.57;;;;;;;5.93;100.00;97619.60;4163515;84;28451;-76
2021/12/01 11:58:00;;;;;;;6.00;1.85;;;;;;;5.93;100.00;97610.27;4148658;84;28505;-75
2021/12/01 12:04:07;;;;;;;4.80;2.10;;;;;;;5.84;100.00;97591.95;4132103;84;28512;-75
2021/12/01 12:10:14;;;;;;;4.45;1.65;;;;;;;5.83;100.00;97576.18;4147738;84;28561;-75
2021/12/01 12:16:24;;;;;;;7.45;2.33;;;;;;;5.77;100.00;97555.27;4159420;84;28500;-75
2021/12/01 12:22:41;;;;;;;3.52;1.55;;;;;;;5.92;100.00;97533.41;4134565;85;28538;-82
2021/12/01 12:28:42;;;;;;;6.78;1.50;;;;;;;6.21;100.00;97523.31;4154001;84;28451;-81
2021/12/01 12:34:52;;;;;;;3.92;1.70;;;;;;;6.36;100.00;97523.56;4146737;85;28481;-83
2021/12/01 12:41:08;;;;;;;4.97;1.77;;;;;;;6.30;100.00;97523.20;4136025;84;28510;-83
2021/12/01 12:47:19;;;;;;;5.55;2.20;;;;;;;6.25;100.00;97512.42;4143837;84;28598;-84
2021/12/01 12:53:24;;;;;;;5.72;1.72;;;;;;;6.18;100.00;97495.75;4141996;86;28503;-84
2021/12/01 12:59:29;;;;;;;3.92;1.62;;;;;;;6.10;100.00;97480.43;4122188;85;28781;-85
2021/12/01 13:05:39;;;;;;;4.00;1.67;;;;;;;6.07;100.00;97470.76;4127798;85;28510;-84
2021/12/01 13:11:40;;;;;;;4.40;1.67;;;;;;;5.93;100.00;97466.22;4143409;85;28525;-77
2021/12/01 13:17:49;;;;;;;3.40;1.65;;;;;;;5.96;100.00;97457.72;4158304;84;28474;-72
2021/12/01 13:23:54;;;;;;;4.58;1.60;;;;;;;6.00;100.00;97453.00;4044356;86;28513;-70
2021/12/01 13:30:09;;;;;;;6.08;1.67;;;;;;;6.06;100.00;97443.80;4146694;84;28532;-71
2021/12/01 13:36:16;;;;;;;2.83;1.32;;;;;;;6.10;100.00;97443.08;4189294;83;28521;-72
2021/12/01 13:42:21;;;;;;;5.90;1.95;;;;;;;6.00;100.00;97428.99;4188358;83;28467;-73
2021/12/01 13:48:21;;;;;;;4.28;1.92;;;;;;;6.05;100.00;97409.63;4187171;83;28563;-73
2021/12/01 13:54:24;;;;;;;4.65;2.00;;;;;;;6.08;100.00;97399.79;4181920;83;28531;-72
2021/12/01 14:00:45;;;;;;;3.60;1.75;;;;;;;6.04;100.00;97392.52;4185690;83;28548;-72
2021/12/01 14:06:48;;;;;;;4.83;2.10;;;;;;;5.90;100.00;97380.02;4195012;83;28502;-73
2021/12/01 14:12:59;;;;;;;4.65;1.70;;;;;;;5.91;100.00;97368.28;4195195;83;28482;-70
2021/12/01 14:19:01;;;;;;;4.72;1.72;;;;;;;5.86;100.00;97351.13;4191170;83;28482;-71
2021/12/01 14:25:04;;;;;;;4.97;2.30;;;;;;;5.88;100.00;97343.41;4184998;83;28567;-70
2021/12/01 14:31:06;;;;;;;5.37;2.30;;;;;;;5.82;100.00;97335.34;4228138;82;28549;-70
2021/12/01 14:37:14;;;;;;;6.17;2.52;;;;;;;5.66;100.00;97322.28;4185840;83;28452;-71
2021/12/01 14:43:26;;;;;;;4.45;2.10;;;;;;;5.60;100.00;97307.78;4189525;83;28455;-70
2021/12/01 14:49:42;;;;;;;3.08;1.40;;;;;;;5.56;100.00;97292.25;4198554;83;28493;-70
2021/12/01 14:55:47;;;;;;;2.70;1.50;;;;;;;5.54;100.00;97279.69;4190278;83;28545;-70
2021/12/01 15:02:25;;;;;;;3.98;1.70;;;;;;;5.55;100.00;97274.64;4200894;83;28522;-72
2021/12/01 15:08:37;;;;;;;4.33;1.90;;;;;;;5.44;100.00;97272.86;4187672;83;28493;-75
2021/12/01 15:14:38;;;;;;;4.60;2.10;;;;;;;5.34;100.00;97271.35;4203962;83;28527;-76
2021/12/01 15:20:57;;;;;;;5.30;2.52;;;;;;;5.25;100.00;97270.41;4204015;83;28513;-74
2021/12/01 15:26:59;;;;;;;6.25;3.00;;;;;;;5.20;100.00;97273.51;4198972;83;28466;-79
2021/12/01 15:33:08;;;;;;;7.20;3.60;;;;;;;5.14;100.00;97272.10;4203410;83;28474;-77
2021/12/01 15:39:12;;;;;;;8.43;3.85;;;;;;;5.13;100.00;97281.66;4195770;83;28531;-78
2021/12/01 15:45:14;;;;;;;6.65;3.15;;;;;;;5.13;100.00;97279.81;4214482;83;28447;-84
2021/12/01 15:51:15;;;;;;;7.92;3.20;;;;;;;5.19;100.00;97263.90;4218444;83;28464;-84
2021/12/01 15:57:16;;;;;;;5.95;3.10;;;;;;;5.28;100.00;97263.80;4206385;83;28521;-75
2021/12/01 16:03:18;;;;;;;4.67;2.67;;;;;;;5.35;100.00;97262.30;4208373;83;28551;-75
2021/12/01 16:09:24;;;;;;;6.60;2.83;;;;;;;5.43;100.00;97258.73;4210644;83;28442;-77
2021/12/01 16:15:25;;;;;;;5.28;2.50;;;;;;;5.41;100.00;97246.69;4215639;83;28502;-74
2021/12/01 16:21:27;;;;;;;5.08;3.00;;;;;;;5.35;100.00;97231.66;4237090;83;28537;-76
2021/12/01 16:27:31;;;;;;;5.83;3.12;;;;;;;5.26;100.00;97232.08;4210759;83;28465;-77
2021/12/01 16:33:32;;;;;;;7.00;3.30;;;;;;;5.22;100.00;97220.27;4211681;83;28523;-76
2021/12/01 16:39:34;;;;;;;6.83;3.02;;;;;;;5.14;100.00;97210.00;4190785;83;28462;-75
2021/12/01 16:45:36;;;;;;;8.98;3.75;;;;;;;5.14;100.00;97202.02;4228055;83;28518;-80
2021/12/01 16:51:37;;;;;;;8.03;3.27;;;;;;;5.15;100.00;97187.64;4190583;83;28476;-80
2021/12/01 16:57:38;;;;;;;9.13;3.60;;;;;;;5.05;100.00;97176.81;4200581;83;28469;-77
2021/12/01 17:03:50;;;;;;;6.67;3.50;;;;;;;4.87;100.00;97166.69;4221529;83;28477;-84
2021/12/01 17:09:47;;;;;;;;;;;;;;;4.71;100.00;97146.44;4222047;83;28468;-86
2021/12/01 17:15:56;;;;;;;7.15;3.27;;;;;;;4.76;100.00;97140.94;4215234;83;20190;-83
2021/12/01 17:21:58;;;;;;;7.90;4.12;;;;;;;4.86;100.00;97132.58;4170402;83;28545;-80
2021/12/01 17:27:59;;;;;;;7.03;3.58;;;;;;;4.86;100.00;97113.15;4195979;83;28497;-84
2021/12/01 17:34:00;;;;;;;7.85;3.83;;;;;;;5.06;100.00;97099.88;4125950;86;28473;-84
2021/12/01 17:40:04;;;;;;;5.97;3.17;;;;;;;5.03;100.00;97087.84;4126232;86;28473;-84
2021/12/01 17:46:14;;;;;;;8.08;3.12;;;;;;;5.25;100.00;97091.09;4220543;83;28547;-83
2021/12/01 17:52:09;;;;;;;6.83;3.08;;;;;;;5.44;100.00;97075.63;4171643;84;28547;-81
2021/12/01 17:58:11;;;;;;;6.25;2.35;;;;;;;5.62;100.00;97075.06;4196616;84;28547;-82
2021/12/01 18:04:13;;;;;;;5.65;2.65;;;;;;;5.67;100.00;97083.92;4189149;84;28555;-79
2021/12/01 18:10:15;;;;;;;5.60;2.87;;;;;;;5.72;100.00;97073.31;4060372;87;28486;-80
2021/12/01 18:16:18;;;;;;;10.13;2.87;;;;;;;5.74;100.00;97077.08;4152464;86;28522;-80
2021/12/01 18:22:20;;;;;;;5.90;2.85;;;;;;;5.76;100.00;97070.17;4135231;83;28624;-78
2021/12/01 18:28:21;;;;;;;6.53;2.60;;;;;;;5.65;100.00;97061.23;4196632;83;28591;-80
2021/12/01 18:34:26;;;;;;;6.20;2.80;;;;;;;5.63;100.00;97052.16;4196042;83;28521;-80
2021/12/01 18:40:26;;;;;;;4.83;2.10;;;;;;;5.63;100.00;97042.02;4166333;84;28513;-78
2021/12/01 18:46:28;;;;;;;7.08;2.45;;;;;;;5.63;100.00;97036.16;4203757;84;28492;-78
2021/12/01 18:52:29;;;;;;;5.47;2.37;;;;;;;5.61;100.00;97023.59;4152544;85;28495;-81
2021/12/01 18:58:31;;;;;;;4.10;2.40;;;;;;;5.55;100.00;97024.59;4135006;85;28502;-81
2021/12/01 19:04:32;;;;;;;5.67;2.80;;;;;;;5.41;100.00;97017.48;4149340;85;28465;-83
2021/12/01 19:10:36;;;;;;;4.03;2.05;;;;;;;5.56;100.00;97004.87;4131484;84;28506;-79
2021/12/01 19:16:39;;;;;;;5.08;2.35;;;;;;;5.68;100.00;96998.09;4133164;85;28524;-81
2021/12/01 19:22:40;;;;;;;3.40;1.87;;;;;;;5.78;100.00;96994.72;4136431;85;28457;-81
2021/12/01 19:28:42;;;;;;;2.87;1.47;;;;;;;5.91;100.00;96984.98;4119812;85;28461;-82
2021/12/01 19:34:44;;;;;;;3.08;1.65;;;;;;;6.15;100.00;96971.39;4203454;83;28547;-77
2021/12/01 19:40:45;;;;;;;4.80;1.90;;;;;;;6.33;100.00;96972.05;4201899;83;28447;-81
2021/12/01 19:46:46;;;;;;;5.20;1.98;;;;;;;6.39;100.00;96974.50;4205455;83;28484;-81
2021/12/01 19:52:50;;;;;;;6.12;2.60;;;;;;;6.47;100.00;96969.25;4189696;83;28477;-77
2021/12/01 19:58:56;;;;;;;5.12;2.33;;;;;;;6.48;100.00;96958.84;4213758;83;28480;-80
2021/12/01 20:04:57;;;;;;;5.90;2.25;;;;;;;6.59;100.00;96961.58;4193892;83;28462;-80
2021/12/01 20:11:01;;;;;;;6.40;2.75;;;;;;;6.65;100.00;96965.36;4194615;83;28482;-80
2021/12/01 20:17:03;;;;;;;5.65;2.50;;;;;;;6.73;100.00;96976.64;4196798;83;28481;-79
2021/12/01 20:23:09;;;;;;;6.37;3.30;;;;;;;6.70;100.00;96973.39;4202891;83;28466;-79
2021/12/01 20:29:10;;;;;;;5.47;2.58;;;;;;;6.69;100.00;96968.33;4204124;83;28469;-80
2021/12/01 20:35:15;;;;;;;3.90;2.17;;;;;;;6.57;100.00;96971.17;4164039;83;28538;-77
2021/12/01 20:41:17;;;;;;;6.28;2.50;;;;;;;6.68;100.00;96966.17;4155410;84;28488;-78
2021/12/01 20:53:34;;;;;;;3.80;1.80;;;;;;;6.94;100.00;96951.66;4159008;84;28463;-79
2021/12/01 21:05:45;;;;;;;7.42;2.65;;;;;;;7.25;100.00;96957.16;4151494;84;28473;-77
2021/12/01 21:11:50;;;;;;;7.30;2.67;;;;;;;7.22;100.00;96940.83;4169467;83;28535;-78
2021/12/01 21:17:52;;;;;;;3.95;1.98;;;;;;;7.28;100.00;96922.94;4143088;84;28470;-79
2021/12/01 21:23:53;;;;;;;3.25;1.77;;;;;;;7.30;100.00;96934.17;4167837;84;28516;-76
2021/12/01 21:29:56;;;;;;;2.72;1.60;;;;;;;7.36;100.00;96935.81;4145524;83;28545;-76
2021/12/01 21:35:57;;;;;;;3.77;1.82;;;;;;;7.44;100.00;96928.59;4184788;84;28486;-80
2021/12/01 21:42:00;;;;;;;3.40;1.50;;;;;;;7.52;100.00;96929.43;4223707;83;28468;-78
2021/12/01 21:48:02;;;;;;;3.10;1.15;;;;;;;7.60;100.00;96926.80;4214950;82;28476;-78
2021/12/01 21:54:05;;;;;;;3.37;1.52;;;;;;;7.72;100.00;96921.73;4205984;83;28517;-79
2021/12/01 22:00:09;;;;;;;3.40;1.40;;;;;;;7.87;100.00;96935.13;4217052;83;28477;-79
2021/12/01 22:06:13;;;;;;;3.47;1.32;;;;;;;7.86;100.00;96946.09;4218435;83;28520;-78
2021/12/01 22:12:24;;;;;;;2.55;1.35;;;;;;;7.85;100.00;96935.11;4228296;84;28505;-77
2021/12/01 22:18:25;;;;;;;2.67;1.20;;;;;;;7.77;100.00;96929.23;4220711;83;28486;-80
2021/12/01 22:24:29;;;;;;;3.27;1.30;;;;;;;7.69;100.00;96915.04;4217880;82;28544;-79
2021/12/01 22:30:30;;;;;;;3.52;1.52;;;;;;;7.66;100.00;96918.25;4217643;82;28536;-78
2021/12/01 22:36:34;;;;;;;3.67;1.80;;;;;;;7.63;100.00;96914.75;4211708;82;28553;-77
2021/12/01 22:42:36;;;;;;;1.72;0.98;;;;;;;7.72;100.00;96913.16;4192711;83;28507;-76
2021/12/01 22:48:38;;;;;;;2.58;1.10;;;;;;;7.74;100.00;96909.69;4195698;83;28490;-78
2021/12/01 22:54:39;;;;;;;2.20;0.98;;;;;;;7.88;100.00;96907.30;4199225;83;28513;-78
2021/12/01 23:00:45;;;;;;;2.20;1.10;;;;;;;7.84;100.00;96899.55;4203437;84;28436;-78
2021/12/01 23:06:48;;;;;;;2.53;1.10;;;;;;;7.78;100.00;96912.12;4200274;83;28478;-76
2021/12/01 23:12:52;;;;;;;1.32;0.80;;;;;;;7.77;100.00;96919.88;4190854;83;50464;-79
2021/12/01 23:18:53;;;;;;;1.75;1.10;;;;;;;7.59;100.00;96899.76;4202810;83;28524;-76
2021/12/01 23:31:16;;;;;;;2.60;0.90;;;;;;;7.56;100.00;96893.61;4204655;83;28458;-79
2021/12/01 23:37:17;;;;;;;3.67;0.90;;;;;;;7.52;100.00;96889.32;4213848;83;28508;-78
2021/12/01 23:43:19;;;;;;;1.65;0.72;;;;;;;7.47;100.00;96893.33;4213024;83;28511;-78
2021/12/01 23:55:40;;;;;;;3.27;1.10;;;;;;;7.56;100.00;96900.84;4205828;83;28548;-79
